Time;durP1;ratioP1;P1;durP2;ratioP2;P2;SDS_P1;SDS_P2;PMS_P1;PMS_P2;Temp;Humidity;BMP_temperature;BMP_pressure;BME280_temperature;BME280_humidity;BME280_pressure;Samples;Min_cycle;Max_cycle;Signal;HPM_P1;HPM_P2
2021/05/03 00:00:33;;;;;;;3.65;2.40;;;;;;;;;;3616845;39;20110;-54
2021/05/03 00:02:59;;;;;;;4.57;2.67;;;;;;;;;;3616577;39;20047;-55
2021/05/03 00:05:26;;;;;;;4.22;2.38;;;;;;;;;;3616272;39;20135;-56
2021/05/03 00:07:52;;;;;;;4.53;2.47;;;;;;;;;;3615961;39;20069;-54
2021/05/03 00:10:18;;;;;;;5.28;2.40;;;;;;;;;;3617011;39;20049;-50
2021/05/03 00:12:44;;;;;;;5.32;2.45;;;;;;;;;;3617028;39;20043;-52
2021/05/03 00:15:12;;;;;;;8.95;2.53;;;;;;;;;;3616664;39;20437;-54
2021/05/03 00:17:38;;;;;;;6.47;2.63;;;;;;;;;;3607064;39;20041;-55
2021/05/03 00:20:04;;;;;;;4.25;2.55;;;;;;;;;;3616550;39;20051;-54
2021/05/03 00:22:30;;;;;;;4.65;3.13;;;;;;;;;;3616100;39;20027;-54
2021/05/03 00:24:55;;;;;;;6.97;3.17;;;;;;;;;;3615167;39;20041;-53
2021/05/03 00:27:21;;;;;;;3.83;2.22;;;;;;;;;;3616653;39;20046;-52
2021/05/03 00:29:46;;;;;;;5.63;3.03;;;;;;;;;;3615967;39;20370;-55
2021/05/03 00:32:11;;;;;;;6.63;2.47;;;;;;;;;;3616294;39;20147;-55
2021/05/03 00:34:37;;;;;;;5.22;2.70;;;;;;;;;;3616786;39;20486;-53
2021/05/03 00:37:03;;;;;;;8.40;2.83;;;;;;;;;;3616645;39;20047;-54
2021/05/03 00:39:28;;;;;;;5.63;3.10;;;;;;;;;;3617849;39;20119;-56
2021/05/03 00:41:54;;;;;;;5.45;3.00;;;;;;;;;;3617441;39;20031;-51
2021/05/03 00:44:19;;;;;;;5.97;3.08;;;;;;;;;;3608613;39;20069;-55
2021/05/03 00:46:44;;;;;;;5.32;3.17;;;;;;;;;;3618059;39;20366;-55
2021/05/03 00:49:10;;;;;;;6.43;3.38;;;;;;;;;;3609118;39;20032;-56
2021/05/03 00:51:35;;;;;;;4.30;2.75;;;;;;;;;;3616868;39;20034;-52
2021/05/03 00:54:01;;;;;;;6.57;3.28;;;;;;;;;;3618513;39;20035;-53
2021/05/03 00:56:26;;;;;;;8.82;2.95;;;;;;;;;;3618132;39;20561;-50
2021/05/03 00:58:52;;;;;;;131.13;13.32;;;;;;;;;;3617828;39;20039;-54
2021/05/03 01:01:17;;;;;;;9.10;3.72;;;;;;;;;;3617126;39;20363;-55
2021/05/03 01:03:43;;;;;;;6.72;2.63;;;;;;;;;;3617621;39;20672;-54
2021/05/03 01:06:08;;;;;;;6.07;3.42;;;;;;;;;;3617880;39;20172;-54
2021/05/03 01:08:34;;;;;;;6.18;3.15;;;;;;;;;;3617766;39;20042;-55
2021/05/03 01:11:00;;;;;;;4.50;3.10;;;;;;;;;;3617402;39;20027;-53
2021/05/03 01:13:25;;;;;;;4.80;2.72;;;;;;;;;;3617669;39;20042;-55
2021/05/03 01:15:51;;;;;;;6.25;3.03;;;;;;;;;;3608165;39;20075;-54
2021/05/03 01:18:16;;;;;;;6.72;2.55;;;;;;;;;;3617431;39;20039;-53
2021/05/03 01:20:42;;;;;;;4.50;2.70;;;;;;;;;;3617169;39;20071;-55
2021/05/03 01:23:07;;;;;;;8.40;2.90;;;;;;;;;;3617901;39;20046;-53
2021/05/03 01:25:37;;;;;;;8.52;2.85;;;;;;;;;;3617087;39;20063;-52
2021/05/03 01:28:03;;;;;;;4.57;2.60;;;;;;;;;;3618202;39;20298;-54
2021/05/03 01:30:32;;;;;;;7.10;2.90;;;;;;;;;;3617799;39;20031;-54
2021/05/03 01:32:58;;;;;;;6.10;2.63;;;;;;;;;;3617246;39;20043;-55
2021/05/03 01:35:24;;;;;;;6.78;3.55;;;;;;;;;;3617001;39;20023;-56
2021/05/03 01:37:52;;;;;;;13.07;3.55;;;;;;;;;;3617858;39;20031;-55
2021/05/03 01:40:17;;;;;;;5.35;3.40;;;;;;;;;;3617938;39;20440;-56
2021/05/03 01:42:43;;;;;;;6.13;2.97;;;;;;;;;;3617488;39;20035;-56
2021/05/03 01:45:09;;;;;;;4.90;3.30;;;;;;;;;;3616968;39;20042;-53
2021/05/03 01:47:35;;;;;;;7.53;3.13;;;;;;;;;;3617612;39;20046;-55
2021/05/03 01:50:00;;;;;;;7.68;3.90;;;;;;;;;;3617094;39;20274;-55
2021/05/03 01:52:26;;;;;;;5.10;2.63;;;;;;;;;;3617123;39;20039;-53
2021/05/03 01:54:52;;;;;;;8.18;3.30;;;;;;;;;;3617508;39;20122;-54
2021/05/03 01:57:19;;;;;;;6.15;2.90;;;;;;;;;;3617414;39;20386;-53
2021/05/03 01:59:47;;;;;;;4.10;2.55;;;;;;;;;;3617623;39;20051;-58
2021/05/03 02:02:12;;;;;;;5.88;3.38;;;;;;;;;;3617125;39;20023;-52
2021/05/03 02:04:38;;;;;;;4.95;2.70;;;;;;;;;;3617402;39;20139;-53
2021/05/03 02:07:03;;;;;;;4.13;2.53;;;;;;;;;;3617944;39;20031;-54
2021/05/03 02:09:28;;;;;;;7.55;3.47;;;;;;;;;;3617168;39;20449;-53
2021/05/03 02:11:54;;;;;;;7.95;3.47;;;;;;;;;;3617078;39;20027;-51
2021/05/03 02:14:19;;;;;;;5.18;2.97;;;;;;;;;;3617307;39;20370;-55
2021/05/03 02:16:45;;;;;;;5.20;3.10;;;;;;;;;;3617304;39;20079;-55
2021/05/03 02:19:10;;;;;;;5.75;3.22;;;;;;;;;;3616716;39;20039;-53
2021/05/03 02:21:35;;;;;;;8.30;3.40;;;;;;;;;;3616575;39;20623;-53
2021/05/03 02:24:01;;;;;;;6.35;3.55;;;;;;;;;;3617484;39;20135;-54
2021/05/03 02:26:27;;;;;;;5.88;3.33;;;;;;;;;;3616605;39;20059;-52
2021/05/03 02:28:52;;;;;;;6.32;3.53;;;;;;;;;;3616539;39;20292;-55
2021/05/03 02:31:18;;;;;;;7.28;3.17;;;;;;;;;;3617267;39;20040;-55
2021/05/03 02:33:44;;;;;;;7.18;3.08;;;;;;;;;;3617067;39;20365;-53
2021/05/03 02:36:09;;;;;;;7.22;3.05;;;;;;;;;;3612495;39;20024;-55
2021/05/03 02:38:35;;;;;;;4.72;3.10;;;;;;;;;;3616995;39;20066;-54
2021/05/03 02:41:00;;;;;;;4.55;3.50;;;;;;;;;;3617079;39;20034;-55
2021/05/03 02:43:26;;;;;;;7.32;3.30;;;;;;;;;;3617569;39;20031;-55
2021/05/03 02:45:51;;;;;;;5.97;3.40;;;;;;;;;;3616895;39;20031;-55
2021/05/03 02:48:17;;;;;;;7.05;3.30;;;;;;;;;;3617256;39;20042;-55
2021/05/03 02:50:42;;;;;;;8.43;2.95;;;;;;;;;;3617021;39;20071;-53
2021/05/03 02:53:07;;;;;;;5.28;3.17;;;;;;;;;;3605406;39;20028;-51
2021/05/03 02:55:33;;;;;;;8.63;4.63;;;;;;;;;;3616618;39;20045;-50
2021/05/03 02:57:58;;;;;;;4.38;3.13;;;;;;;;;;3616565;39;20674;-51
2021/05/03 03:00:27;;;;;;;6.03;2.63;;;;;;;;;;3617144;39;20042;-56
2021/05/03 03:02:52;;;;;;;7.38;3.60;;;;;;;;;;3615887;39;20042;-54
2021/05/03 03:05:18;;;;;;;5.22;3.70;;;;;;;;;;3616966;39;20039;-56
2021/05/03 03:07:43;;;;;;;8.27;3.47;;;;;;;;;;3617049;39;20039;-54
2021/05/03 03:10:09;;;;;;;5.45;3.35;;;;;;;;;;3617618;39;20067;-53
2021/05/03 03:12:35;;;;;;;8.35;3.80;;;;;;;;;;3615711;39;20027;-55
2021/05/03 03:15:02;;;;;;;10.57;3.60;;;;;;;;;;3617008;39;20039;-54
2021/05/03 03:17:28;;;;;;;14.75;3.88;;;;;;;;;;3617180;39;20043;-53
2021/05/03 03:19:53;;;;;;;5.10;3.28;;;;;;;;;;3617135;39;20125;-56
2021/05/03 03:22:19;;;;;;;7.18;3.70;;;;;;;;;;3616112;39;20056;-53
2021/05/03 03:24:45;;;;;;;11.13;4.05;;;;;;;;;;3617158;39;20200;-56
2021/05/03 03:27:10;;;;;;;5.13;3.80;;;;;;;;;;3616487;39;20039;-56
2021/05/03 03:29:36;;;;;;;6.50;3.80;;;;;;;;;;3616992;39;20426;-54
2021/05/03 03:32:02;;;;;;;6.38;4.22;;;;;;;;;;3616245;39;20036;-54
2021/05/03 03:34:27;;;;;;;7.65;4.07;;;;;;;;;;3616578;39;20083;-55
2021/05/03 03:36:52;;;;;;;6.18;3.97;;;;;;;;;;3617093;39;20024;-55
2021/05/03 03:39:18;;;;;;;6.75;3.63;;;;;;;;;;3616175;39;20032;-54
2021/05/03 03:41:43;;;;;;;8.88;4.32;;;;;;;;;;3616694;39;20027;-54
2021/05/03 03:44:09;;;;;;;5.90;4.18;;;;;;;;;;3616507;39;20124;-56
2021/05/03 03:46:35;;;;;;;7.10;4.80;;;;;;;;;;3617036;39;20074;-55
2021/05/03 03:49:01;;;;;;;6.07;4.53;;;;;;;;;;3615443;39;20034;-52
2021/05/03 03:51:26;;;;;;;7.72;3.80;;;;;;;;;;3616712;39;20071;-55
2021/05/03 03:53:53;;;;;;;5.95;4.63;;;;;;;;;;3616827;39;20347;-53
2021/05/03 03:56:20;;;;;;;7.05;4.60;;;;;;;;;;3607256;39;20065;-56
2021/05/03 03:58:45;;;;;;;6.50;4.78;;;;;;;;;;3615864;39;20047;-55
2021/05/03 04:01:12;;;;;;;6.28;4.40;;;;;;;;;;3617444;39;20431;-52
2021/05/03 04:04:00;;;;;;;7.68;4.47;;;;;;;;;;3616691;39;20143;-55
2021/05/03 04:09:23;;;;;;;9.90;5.07;;;;;;;;;;3614850;39;20042;-55
2021/05/03 04:12:07;;;;;;;8.48;4.82;;;;;;;;;;3605497;39;20119;-55
2021/05/03 04:27:39;;;;;;;7.40;4.80;;;;;;;;;;3617882;39;20023;-53
2021/05/03 04:30:11;;;;;;;7.68;4.60;;;;;;;;;;3618426;39;20027;-54
2021/05/03 04:32:37;;;;;;;9.05;5.10;;;;;;;;;;3616884;39;20042;-55
2021/05/03 04:35:04;;;;;;;6.50;4.50;;;;;;;;;;3617018;39;20140;-55
2021/05/03 04:37:29;;;;;;;6.15;4.07;;;;;;;;;;3618300;39;20071;-53
2021/05/03 04:39:55;;;;;;;6.18;4.15;;;;;;;;;;3618044;39;20270;-52
2021/05/03 04:42:20;;;;;;;9.05;4.30;;;;;;;;;;3617594;39;20031;-52
2021/05/03 04:44:45;;;;;;;7.10;4.50;;;;;;;;;;3606645;39;20071;-54
2021/05/03 04:47:11;;;;;;;6.85;4.18;;;;;;;;;;3617973;39;20031;-53
2021/05/03 04:49:36;;;;;;;9.15;4.90;;;;;;;;;;3617134;39;20111;-55
2021/05/03 04:52:02;;;;;;;6.30;4.25;;;;;;;;;;3617880;39;20043;-55
2021/05/03 04:54:27;;;;;;;8.15;4.78;;;;;;;;;;3617458;39;20095;-53
2021/05/03 04:56:52;;;;;;;9.38;4.32;;;;;;;;;;3618183;39;20041;-55
2021/05/03 04:59:18;;;;;;;7.18;4.55;;;;;;;;;;3617295;39;20046;-54
2021/05/03 05:01:43;;;;;;;8.80;4.43;;;;;;;;;;3608636;39;20619;-52
2021/05/03 05:04:09;;;;;;;7.25;4.53;;;;;;;;;;3618111;39;20047;-54
2021/05/03 05:06:34;;;;;;;6.50;4.45;;;;;;;;;;3617521;39;20039;-54
2021/05/03 05:09:04;;;;;;;12.63;4.43;;;;;;;;;;3617302;39;20043;-52
2021/05/03 05:11:33;;;;;;;6.40;3.63;;;;;;;;;;3616536;39;20031;-55
2021/05/03 05:13:59;;;;;;;7.90;4.75;;;;;;;;;;3617994;39;20164;-51
2021/05/03 05:16:25;;;;;;;6.15;4.25;;;;;;;;;;3617787;39;20664;-52
2021/05/03 05:18:50;;;;;;;8.40;4.22;;;;;;;;;;3617753;39;20070;-52
2021/05/03 05:21:16;;;;;;;9.88;4.88;;;;;;;;;;3617846;39;20035;-56
2021/05/03 05:23:41;;;;;;;5.72;4.07;;;;;;;;;;3616946;39;20035;-55
2021/05/03 05:26:08;;;;;;;6.55;4.38;;;;;;;;;;3618283;39;20027;-55
2021/05/03 05:28:34;;;;;;;6.95;4.93;;;;;;;;;;3608181;39;20023;-54
2021/05/03 05:31:00;;;;;;;7.45;4.47;;;;;;;;;;3617522;39;20043;-53
2021/05/03 05:33:25;;;;;;;8.70;5.05;;;;;;;;;;3617485;39;20118;-54
2021/05/03 05:35:50;;;;;;;7.20;4.43;;;;;;;;;;3617401;39;20045;-54
2021/05/03 05:38:16;;;;;;;5.60;4.60;;;;;;;;;;3615900;39;20031;-55
2021/05/03 05:40:41;;;;;;;7.95;5.07;;;;;;;;;;3616639;39;20031;-55
2021/05/03 05:43:07;;;;;;;8.25;4.85;;;;;;;;;;3617637;39;20115;-56
2021/05/03 05:45:32;;;;;;;6.22;4.65;;;;;;;;;;3617171;39;20068;-54
2021/05/03 05:47:58;;;;;;;8.63;6.03;;;;;;;;;;3617045;39;20039;-54
2021/05/03 05:50:23;;;;;;;8.02;5.13;;;;;;;;;;3616065;39;20038;-56
2021/05/03 05:52:48;;;;;;;6.93;4.93;;;;;;;;;;3617023;39;20050;-56
2021/05/03 05:55:14;;;;;;;6.97;4.90;;;;;;;;;;3617911;39;20039;-57
2021/05/03 05:57:39;;;;;;;8.15;4.63;;;;;;;;;;3617229;39;21815;-54
2021/05/03 06:00:05;;;;;;;8.60;5.22;;;;;;;;;;3616781;39;20043;-53
2021/05/03 06:02:31;;;;;;;7.30;5.00;;;;;;;;;;3616455;39;20467;-56
2021/05/03 06:04:56;;;;;;;8.50;5.13;;;;;;;;;;3604473;39;20043;-55
2021/05/03 06:07:22;;;;;;;8.95;5.50;;;;;;;;;;3616377;39;20135;-54
2021/05/03 06:09:47;;;;;;;8.30;5.63;;;;;;;;;;3616259;39;20552;-56
2021/05/03 06:12:13;;;;;;;7.63;4.43;;;;;;;;;;3615317;39;20035;-53
2021/05/03 06:14:38;;;;;;;9.65;5.32;;;;;;;;;;3617516;39;20262;-55
2021/05/03 06:17:03;;;;;;;8.10;5.05;;;;;;;;;;3615871;39;20386;-57
2021/05/03 06:19:29;;;;;;;7.55;4.57;;;;;;;;;;3607992;39;20039;-55
2021/05/03 06:21:54;;;;;;;6.25;4.57;;;;;;;;;;3615932;39;20251;-57
2021/05/03 06:24:19;;;;;;;8.30;5.18;;;;;;;;;;3617147;39;20095;-55
2021/05/03 06:26:46;;;;;;;11.00;4.15;;;;;;;;;;3617361;39;20042;-57
2021/05/03 06:29:11;;;;;;;9.73;4.25;;;;;;;;;;3616115;39;20045;-56
2021/05/03 06:31:37;;;;;;;7.57;4.53;;;;;;;;;;3613486;39;20362;-55
2021/05/03 06:34:02;;;;;;;5.25;3.70;;;;;;;;;;3616427;39;20846;-55
2021/05/03 06:36:28;;;;;;;11.40;4.38;;;;;;;;;;3617209;39;20043;-56
2021/05/03 06:38:53;;;;;;;7.07;4.57;;;;;;;;;;3617019;39;20035;-56
2021/05/03 06:41:19;;;;;;;7.03;4.47;;;;;;;;;;3616807;39;20031;-55
2021/05/03 06:43:44;;;;;;;5.10;3.83;;;;;;;;;;3615350;39;20046;-56
2021/05/03 06:46:10;;;;;;;6.75;4.22;;;;;;;;;;3616708;39;20023;-56
2021/05/03 06:48:35;;;;;;;5.50;4.10;;;;;;;;;;3606787;39;20060;-56
2021/05/03 06:51:00;;;;;;;7.53;4.68;;;;;;;;;;3612717;39;20034;-57
2021/05/03 06:53:26;;;;;;;10.35;5.10;;;;;;;;;;3615363;39;20381;-55
2021/05/03 06:55:52;;;;;;;6.15;4.25;;;;;;;;;;3616948;39;20171;-57
2021/05/03 06:58:17;;;;;;;8.98;4.28;;;;;;;;;;3616732;39;20422;-55
2021/05/03 07:00:43;;;;;;;9.80;4.35;;;;;;;;;;3617363;39;20275;-57
2021/05/03 07:03:09;;;;;;;5.53;4.20;;;;;;;;;;3612850;39;20352;-56
2021/05/03 07:05:36;;;;;;;6.10;4.25;;;;;;;;;;3616571;39;20058;-57
2021/05/03 07:08:02;;;;;;;8.50;4.70;;;;;;;;;;3616819;39;20042;-55
2021/05/03 07:10:28;;;;;;;8.07;4.20;;;;;;;;;;3616724;39;20039;-56
2021/05/03 07:12:53;;;;;;;5.30;4.18;;;;;;;;;;3617192;39;20310;-56
2021/05/03 07:15:19;;;;;;;6.65;4.30;;;;;;;;;;3617051;39;20039;-57
2021/05/03 07:17:46;;;;;;;9.50;4.03;;;;;;;;;;3616556;39;20317;-57
2021/05/03 07:20:12;;;;;;;9.15;3.70;;;;;;;;;;3616481;39;20046;-56
2021/05/03 07:22:37;;;;;;;7.53;4.43;;;;;;;;;;3616417;39;20362;-57
2021/05/03 07:25:07;;;;;;;6.55;4.57;;;;;;;;;;3617010;39;20053;-56
2021/05/03 07:27:32;;;;;;;6.00;3.63;;;;;;;;;;3614379;39;20325;-56
2021/05/03 07:29:58;;;;;;;11.48;4.53;;;;;;;;;;3604576;39;20039;-57
2021/05/03 07:32:23;;;;;;;5.40;4.00;;;;;;;;;;3616147;39;20028;-56
2021/05/03 07:34:49;;;;;;;8.30;5.38;;;;;;;;;;3616214;39;20090;-58
2021/05/03 07:37:14;;;;;;;7.45;5.05;;;;;;;;;;3616889;39;20023;-57
2021/05/03 07:39:42;;;;;;;6.53;4.00;;;;;;;;;;3617237;39;20033;-57
2021/05/03 07:42:08;;;;;;;7.25;5.05;;;;;;;;;;3617143;39;20031;-57
2021/05/03 07:44:34;;;;;;;6.65;4.45;;;;;;;;;;3616729;39;20038;-56
2021/05/03 07:46:59;;;;;;;6.60;4.10;;;;;;;;;;3616168;39;20035;-58
2021/05/03 07:49:24;;;;;;;8.23;4.88;;;;;;;;;;3616581;39;20034;-55
2021/05/03 07:51:51;;;;;;;5.93;3.90;;;;;;;;;;3617071;39;20359;-57
2021/05/03 07:54:16;;;;;;;7.65;4.80;;;;;;;;;;3607563;39;20046;-57
2021/05/03 07:56:43;;;;;;;6.22;3.92;;;;;;;;;;3617108;39;20046;-57
2021/05/03 07:59:09;;;;;;;7.53;3.97;;;;;;;;;;3616837;39;20116;-56
2021/05/03 08:01:34;;;;;;;6.45;4.10;;;;;;;;;;3616281;39;20055;-57
2021/05/03 08:03:59;;;;;;;7.32;4.60;;;;;;;;;;3616839;39;20042;-54
2021/05/03 08:06:25;;;;;;;6.85;4.47;;;;;;;;;;3616618;39;20038;-57
2021/05/03 08:08:51;;;;;;;13.73;4.40;;;;;;;;;;3616847;39;20042;-57
2021/05/03 08:11:18;;;;;;;6.38;4.07;;;;;;;;;;3616396;39;20043;-56
2021/05/03 08:13:44;;;;;;;5.47;4.15;;;;;;;;;;3616365;39;20069;-58
2021/05/03 08:16:15;;;;;;;6.13;4.10;;;;;;;;;;3616891;39;20036;-58
2021/05/03 08:18:41;;;;;;;;;;;;;;;;;;3616510;39;20042;-57
2021/05/03 08:21:07;;;;;;;5.60;4.30;;;;;;;;;;3616348;39;19935;-58
2021/05/03 08:23:33;;;;;;;7.40;4.70;;;;;;;;;;3606948;39;20070;-57
2021/05/03 08:25:59;;;;;;;8.35;5.15;;;;;;;;;;3616314;39;20247;-58
2021/05/03 08:28:25;;;;;;;8.60;5.03;;;;;;;;;;3614889;39;20037;-57
2021/05/03 08:30:52;;;;;;;6.32;4.70;;;;;;;;;;3614557;39;20651;-57
2021/05/03 08:33:18;;;;;;;9.10;5.25;;;;;;;;;;3611983;39;20042;-54
2021/05/03 08:35:44;;;;;;;9.20;4.70;;;;;;;;;;3616018;39;20141;-58
2021/05/03 08:38:09;;;;;;;7.80;5.20;;;;;;;;;;3615497;39;20039;-57
2021/05/03 08:40:36;;;;;;;7.55;5.82;;;;;;;;;;3616543;39;20347;-57
2021/05/03 08:43:03;;;;;;;7.75;4.78;;;;;;;;;;3606390;39;20123;-58
2021/05/03 08:45:30;;;;;;;9.90;5.47;;;;;;;;;;3615823;39;20143;-57
2021/05/03 08:53:15;;;;;;;12.13;5.65;;;;;;;;;;3615420;39;20126;-58
2021/05/03 08:55:41;;;;;;;9.88;6.18;;;;;;;;;;3616669;39;20067;-57
2021/05/03 08:58:08;;;;;;;8.07;5.68;;;;;;;;;;3616202;39;20327;-58
2021/05/03 09:00:34;;;;;;;8.00;5.38;;;;;;;;;;3616787;39;20094;-58
2021/05/03 09:03:00;;;;;;;10.57;5.32;;;;;;;;;;3617538;39;20310;-58
2021/05/03 09:05:26;;;;;;;6.13;4.80;;;;;;;;;;3617444;39;20049;-58
2021/05/03 09:07:52;;;;;;;6.47;4.95;;;;;;;;;;3608337;39;20039;-59
2021/05/03 09:10:19;;;;;;;7.63;5.35;;;;;;;;;;3618074;39;20036;-56
2021/05/03 09:12:46;;;;;;;7.75;5.72;;;;;;;;;;3617253;39;20035;-58
2021/05/03 09:15:17;;;;;;;9.95;5.53;;;;;;;;;;3608467;39;20056;-58
2021/05/03 09:17:43;;;;;;;;;;;;;;;;;;3618205;39;20027;-57
2021/05/03 09:20:21;;;;;;;7.25;5.60;;;;;;;;;;3617762;39;20265;-57
2021/05/03 09:25:23;;;;;;;6.20;5.32;;;;;;;;;;3617698;39;20035;-58
2021/05/03 09:28:01;;;;;;;10.27;4.97;;;;;;;;;;3617053;39;20034;-58
2021/05/03 09:30:33;;;;;;;7.78;5.28;;;;;;;;;;3616467;39;20044;-58
2021/05/03 09:33:11;;;;;;;7.05;4.72;;;;;;;;;;3617321;39;20039;-58
2021/05/03 09:35:50;;;;;;;6.85;4.60;;;;;;;;;;3617333;39;20832;-58
2021/05/03 09:38:26;;;;;;;6.93;4.72;;;;;;;;;;3606177;39;20054;-56
2021/05/03 09:41:12;;;;;;;6.25;4.60;;;;;;;;;;3617748;39;20128;-57
2021/05/03 09:43:42;;;;;;;7.82;4.80;;;;;;;;;;3616930;39;20601;-58
2021/05/03 09:46:36;;;;;;;6.57;4.70;;;;;;;;;;3617673;39;20477;-58
2021/05/03 09:49:12;;;;;;;6.85;4.03;;;;;;;;;;3617951;39;20262;-58
2021/05/03 09:51:48;;;;;;;8.95;4.30;;;;;;;;;;3617416;39;20103;-59
2021/05/03 09:54:30;;;;;;;6.25;4.10;;;;;;;;;;3617942;39;20097;-58
2021/05/03 09:57:06;;;;;;;9.02;4.78;;;;;;;;;;3616868;39;20035;-60
2021/05/03 09:59:49;;;;;;;8.02;5.30;;;;;;;;;;3607636;39;20054;-59
2021/05/03 10:02:26;;;;;;;7.30;4.30;;;;;;;;;;3614731;39;20149;-58
2021/05/03 10:07:41;;;;;;;12.52;4.70;;;;;;;;;;3607658;39;20516;-58
2021/05/03 10:10:23;;;;;;;4.88;4.10;;;;;;;;;;3617189;39;20361;-59
2021/05/03 10:12:50;;;;;;;8.95;4.97;;;;;;;;;;3605489;39;20069;-58
2021/05/03 10:15:17;;;;;;;8.15;4.40;;;;;;;;;;3617424;39;20042;-58
2021/05/03 10:17:44;;;;;;;9.68;5.50;;;;;;;;;;3617358;39;20054;-59
2021/05/03 10:20:13;;;;;;;6.13;4.50;;;;;;;;;;3608477;39;20035;-58
2021/05/03 10:22:39;;;;;;;7.13;4.80;;;;;;;;;;3616655;39;20134;-58
2021/05/03 10:25:09;;;;;;;6.13;4.15;;;;;;;;;;3617446;39;20099;-59
2021/05/03 10:27:39;;;;;;;6.13;3.63;;;;;;;;;;3617342;39;20073;-58
2021/05/03 10:30:05;;;;;;;6.20;3.47;;;;;;;;;;3617019;39;20047;-58
2021/05/03 10:32:34;;;;;;;7.70;4.05;;;;;;;;;;3616909;39;20046;-57
2021/05/03 10:35:01;;;;;;;5.45;2.88;;;;;;;;;;3616794;39;20035;-60
2021/05/03 10:37:29;;;;;;;9.68;4.50;;;;;;;;;;3617176;39;20046;-58
2021/05/03 10:40:06;;;;;;;6.05;3.42;;;;;;;;;;3599714;39;20120;-60
2021/05/03 10:42:32;;;;;;;9.25;3.63;;;;;;;;;;3616602;39;20042;-60
2021/05/03 10:45:20;;;;;;;6.07;3.97;;;;;;;;;;3617596;39;20067;-60
2021/05/03 10:47:53;;;;;;;5.68;3.40;;;;;;;;;;3616950;39;20043;-60
2021/05/03 10:50:29;;;;;;;8.57;4.78;;;;;;;;;;3615789;39;20069;-60
2021/05/03 10:52:55;;;;;;;6.20;3.50;;;;;;;;;;3616936;39;20112;-59
2021/05/03 10:55:21;;;;;;;6.28;4.15;;;;;;;;;;3617210;39;20059;-60
2021/05/03 10:58:00;;;;;;;5.68;4.15;;;;;;;;;;3616855;39;20253;-60
2021/05/03 11:00:31;;;;;;;5.50;3.28;;;;;;;;;;3616511;39;20047;-60
2021/05/03 11:02:56;;;;;;;6.55;3.78;;;;;;;;;;3616579;39;20042;-61
2021/05/03 11:05:27;;;;;;;5.97;3.30;;;;;;;;;;3616782;39;20032;-60
2021/05/03 11:08:04;;;;;;;7.10;2.83;;;;;;;;;;3616296;39;20034;-59
2021/05/03 11:10:55;;;;;;;5.70;3.17;;;;;;;;;;3617012;39;20035;-59
2021/05/03 11:13:35;;;;;;;5.88;2.63;;;;;;;;;;3616035;39;20066;-58
2021/05/03 11:16:41;;;;;;;7.38;2.55;;;;;;;;;;3616392;39;20035;-58
2021/05/03 11:22:42;;;;;;;4.43;2.58;;;;;;;;;;3615071;39;20370;-58
2021/05/03 11:25:14;;;;;;;10.27;3.22;;;;;;;;;;3616888;39;20034;-59
2021/05/03 11:32:58;;;;;;;6.75;3.50;;;;;;;;;;3616485;39;20056;-59
2021/05/03 11:43:34;;;;;;;4.15;2.80;;;;;;;;;;3616758;39;20047;-58
2021/05/03 11:46:04;;;;;;;5.37;3.07;;;;;;;;;;3616922;39;20035;-59
2021/05/03 11:48:30;;;;;;;5.13;3.05;;;;;;;;;;3616409;39;20053;-58
2021/05/03 11:51:09;;;;;;;6.22;2.70;;;;;;;;;;3616248;39;20411;-57
2021/05/03 11:53:37;;;;;;;7.53;3.25;;;;;;;;;;3616689;39;20047;-58
2021/05/03 11:56:22;;;;;;;6.53;3.80;;;;;;;;;;3616735;39;20094;-59
2021/05/03 11:58:51;;;;;;;5.85;3.58;;;;;;;;;;3615235;39;20472;-58
2021/05/03 12:01:17;;;;;;;5.28;3.40;;;;;;;;;;3614753;39;20414;-58
2021/05/03 12:03:44;;;;;;;5.82;3.15;;;;;;;;;;3616700;39;20392;-56
2021/05/03 12:06:10;;;;;;;6.03;3.20;;;;;;;;;;3614411;39;20031;-58
2021/05/03 12:08:36;;;;;;;5.30;3.38;;;;;;;;;;3614025;39;20373;-59
2021/05/03 12:11:08;;;;;;;4.30;2.90;;;;;;;;;;3616988;39;20034;-58
2021/05/03 12:13:34;;;;;;;4.57;2.83;;;;;;;;;;3615378;39;20108;-59
2021/05/03 12:16:00;;;;;;;7.60;2.88;;;;;;;;;;3615100;39;20028;-58
2021/05/03 12:18:25;;;;;;;5.78;2.50;;;;;;;;;;3613605;39;20028;-58
2021/05/03 12:20:53;;;;;;;4.35;3.00;;;;;;;;;;3614656;39;20035;-58
2021/05/03 12:23:24;;;;;;;5.93;3.15;;;;;;;;;;3616357;39;20035;-58
2021/05/03 12:25:51;;;;;;;5.88;2.95;;;;;;;;;;3615880;39;20468;-58
2021/05/03 12:28:25;;;;;;;6.15;3.00;;;;;;;;;;3615459;39;20028;-58
2021/05/03 12:30:55;;;;;;;6.97;3.55;;;;;;;;;;3615678;39;20035;-59
2021/05/03 12:33:21;;;;;;;4.85;3.20;;;;;;;;;;3615816;39;20027;-58
2021/05/03 12:35:48;;;;;;;4.93;2.85;;;;;;;;;;3617253;39;20390;-58
2021/05/03 12:38:28;;;;;;;5.53;3.22;;;;;;;;;;3617445;39;20043;-58
2021/05/03 12:40:55;;;;;;;5.25;2.88;;;;;;;;;;3617167;39;20335;-59
2021/05/03 12:43:24;;;;;;;3.78;2.58;;;;;;;;;;3617421;39;20036;-58
2021/05/03 12:46:02;;;;;;;6.93;3.30;;;;;;;;;;3617317;39;20297;-58
2021/05/03 12:51:21;;;;;;;6.53;3.30;;;;;;;;;;3617467;39;20317;-58
2021/05/03 12:54:12;;;;;;;4.68;3.00;;;;;;;;;;3616727;39;20031;-59
2021/05/03 12:57:19;;;;;;;6.55;2.67;;;;;;;;;;3616989;39;20051;-59
2021/05/03 13:03:04;;;;;;;5.70;3.10;;;;;;;;;;3614870;39;20023;-58
2021/05/03 13:05:23;;;;;;;4.40;2.75;;;;;;;;;;3611837;39;20080;-58
2021/05/03 13:30:00;;;;;;;6.38;3.00;;;;;;;;;;3616031;39;20028;-55
2021/05/03 13:32:27;;;;;;;3.92;1.98;;;;;;;;;;3617697;39;20111;-54
2021/05/03 13:34:54;;;;;;;4.07;2.10;;;;;;;;;;3617374;39;20362;-54
2021/05/03 13:37:20;;;;;;;7.82;2.78;;;;;;;;;;3607410;39;20059;-55
2021/05/03 13:39:46;;;;;;;4.90;2.90;;;;;;;;;;3616750;39;20167;-55
2021/05/03 13:42:12;;;;;;;5.25;2.35;;;;;;;;;;3616924;39;20038;-56
2021/05/03 13:44:39;;;;;;;5.22;2.50;;;;;;;;;;3616928;39;20043;-56
2021/05/03 13:47:05;;;;;;;4.72;2.47;;;;;;;;;;3616686;39;20043;-55
2021/05/03 13:49:31;;;;;;;5.00;2.53;;;;;;;;;;3616468;39;20467;-55
2021/05/03 13:51:58;;;;;;;4.20;2.67;;;;;;;;;;3616925;39;20028;-56
2021/05/03 13:54:25;;;;;;;4.82;2.88;;;;;;;;;;3616586;39;20019;-57
2021/05/03 13:56:57;;;;;;;5.53;2.63;;;;;;;;;;3617618;39;20050;-56
2021/05/03 13:59:22;;;;;;;12.77;2.65;;;;;;;;;;3616506;39;20051;-54
2021/05/03 14:01:48;;;;;;;8.10;3.28;;;;;;;;;;3616770;39;20451;-55
2021/05/03 14:04:13;;;;;;;4.68;2.85;;;;;;;;;;3615784;39;20053;-55
2021/05/03 14:06:39;;;;;;;4.50;2.72;;;;;;;;;;3617225;39;20054;-54
2021/05/03 14:09:04;;;;;;;6.10;3.00;;;;;;;;;;3616715;39;20035;-54
2021/05/03 14:11:31;;;;;;;5.85;2.50;;;;;;;;;;3617186;39;20031;-55
2021/05/03 14:13:56;;;;;;;4.35;2.50;;;;;;;;;;3615680;39;20027;-54
2021/05/03 14:16:21;;;;;;;4.70;2.85;;;;;;;;;;3616760;39;20192;-56
2021/05/03 14:18:47;;;;;;;4.97;2.40;;;;;;;;;;3617086;39;20038;-56
2021/05/03 14:21:13;;;;;;;7.15;2.53;;;;;;;;;;3616183;39;20032;-56
2021/05/03 14:23:39;;;;;;;7.85;2.70;;;;;;;;;;3617900;39;20043;-56
2021/05/03 14:26:06;;;;;;;3.95;2.03;;;;;;;;;;3617664;39;20075;-56
2021/05/03 14:28:41;;;;;;;4.72;2.25;;;;;;;;;;3617049;39;20096;-56
2021/05/03 14:31:11;;;;;;;4.28;2.47;;;;;;;;;;3617550;39;20043;-55
2021/05/03 14:33:38;;;;;;;4.43;2.53;;;;;;;;;;3617205;39;20480;-56
2021/05/03 14:36:08;;;;;;;2.92;1.75;;;;;;;;;;3617494;39;20451;-57
2021/05/03 14:38:37;;;;;;;3.88;2.33;;;;;;;;;;3616964;39;20038;-58
2021/05/03 14:41:04;;;;;;;8.52;2.88;;;;;;;;;;3617353;39;20274;-56
2021/05/03 14:43:29;;;;;;;3.95;2.40;;;;;;;;;;3618270;39;20089;-56
2021/05/03 14:46:08;;;;;;;4.05;2.30;;;;;;;;;;3617280;39;20366;-56
2021/05/03 14:56:01;;;;;;;10.35;2.20;;;;;;;;;;3615595;39;20067;-55
2021/05/03 14:58:27;;;;;;;3.90;2.40;;;;;;;;;;3617038;39;20035;-56
2021/05/03 15:00:53;;;;;;;6.45;2.58;;;;;;;;;;3617442;39;20035;-52
2021/05/03 15:03:19;;;;;;;4.75;2.20;;;;;;;;;;3616700;39;20043;-59
2021/05/03 15:05:48;;;;;;;4.15;2.38;;;;;;;;;;3615705;39;20394;-55
2021/05/03 15:08:13;;;;;;;4.53;2.55;;;;;;;;;;3616308;39;20042;-56
2021/05/03 15:10:40;;;;;;;4.32;2.60;;;;;;;;;;3616703;39;20367;-55
2021/05/03 15:13:12;;;;;;;5.93;2.80;;;;;;;;;;3616060;39;20071;-56
2021/05/03 15:16:04;;;;;;;8.48;2.58;;;;;;;;;;3616794;39;20043;-55
2021/05/03 15:24:09;;;;;;;4.15;2.35;;;;;;;;;;3574883;40;20033;-55
2021/05/03 15:26:35;;;;;;;6.05;2.55;;;;;;;;;;3609178;39;20028;-54
2021/05/03 15:32:06;;;;;;;4.70;2.70;;;;;;;;;;3615994;39;20035;-52
2021/05/03 15:34:32;;;;;;;13.95;2.30;;;;;;;;;;3617133;39;20023;-54
2021/05/03 15:36:57;;;;;;;11.05;2.95;;;;;;;;;;3617007;39;20031;-56
2021/05/03 15:39:23;;;;;;;4.35;2.50;;;;;;;;;;3616498;39;20266;-56
2021/05/03 15:41:48;;;;;;;8.32;2.42;;;;;;;;;;3617110;39;20273;-57
2021/05/03 15:44:19;;;;;;;4.72;2.78;;;;;;;;;;3617241;39;20031;-55
2021/05/03 15:46:45;;;;;;;;;;;;;;;;;;3617182;39;20754;-56
2021/05/03 15:49:11;;;;;;;3.90;2.13;;;;;;;;;;3616541;39;19928;-56
2021/05/03 15:51:37;;;;;;;6.30;2.50;;;;;;;;;;3617001;39;20115;-54
2021/05/03 15:54:05;;;;;;;5.25;2.78;;;;;;;;;;3616922;39;20046;-56
2021/05/03 15:56:31;;;;;;;3.85;2.40;;;;;;;;;;3616212;39;20095;-57
2021/05/03 15:58:57;;;;;;;4.38;2.70;;;;;;;;;;3615896;39;20536;-57
2021/05/03 16:01:23;;;;;;;5.55;2.33;;;;;;;;;;3615837;39;20042;-53
2021/05/03 16:03:48;;;;;;;3.55;2.05;;;;;;;;;;3616753;39;20445;-56
2021/05/03 16:06:14;;;;;;;5.03;2.17;;;;;;;;;;3617559;39;20051;-56
2021/05/03 16:08:40;;;;;;;4.78;2.75;;;;;;;;;;3615092;39;20050;-56
2021/05/03 16:11:07;;;;;;;4.93;2.40;;;;;;;;;;3616771;39;20279;-56
2021/05/03 16:13:34;;;;;;;4.70;2.80;;;;;;;;;;3615830;39;20050;-56